createdAt,value
2018-06-17T00:00:46.513Z,82.06
2018-06-17T00:03:15.219Z,81.61
2018-06-17T00:05:44.071Z,81.63
2018-06-17T00:08:12.905Z,81.75
2018-06-17T00:10:41.677Z,82.18
2018-06-17T00:13:11.024Z,82.62
2018-06-17T00:15:40.598Z,82.54
2018-06-17T00:18:09.806Z,82.38
2018-06-17T00:20:38.383Z,81.84
2018-06-17T00:23:07.018Z,82.39
2018-06-17T00:25:36.391Z,82.64
2018-06-17T00:28:05.063Z,83.07
2018-06-17T00:30:33.837Z,83.62
2018-06-17T00:33:03.140Z,83.66
2018-06-17T00:35:32.403Z,83.77
2018-06-17T00:38:01.109Z,83.49
2018-06-17T00:40:29.802Z,83.99
2018-06-17T00:42:58.373Z,83.58
2018-06-17T00:45:27.178Z,83.00
2018-06-17T00:47:56.379Z,83.35
2018-06-17T00:50:24.952Z,84.37
2018-06-17T00:52:53.814Z,84.11
2018-06-17T00:55:23.073Z,84.48
2018-06-17T00:57:52.703Z,83.65
2018-06-17T01:00:22.933Z,84.37
2018-06-17T01:02:51.772Z,85.58
2018-06-17T01:05:21.127Z,85.29
2018-06-17T01:07:50.487Z,85.96
2018-06-17T01:10:20.043Z,85.96
2018-06-17T01:12:49.502Z,86.25
2018-06-17T01:15:18.519Z,85.55
2018-06-17T01:17:47.830Z,85.54
2018-06-17T01:20:16.403Z,85.42
2018-06-17T01:22:44.928Z,85.86
2018-06-17T01:25:14.153Z,86.24
2018-06-17T01:27:42.852Z,86.20
2018-06-17T01:30:11.555Z,85.91
2018-06-17T01:32:40.489Z,86.09
2018-06-17T01:35:09.279Z,85.85
2018-06-17T01:37:37.974Z,86.19
2018-06-17T01:40:06.546Z,86.59
2018-06-17T01:42:35.317Z,86.42
2018-06-17T01:45:04.022Z,86.23
2018-06-17T01:47:32.594Z,86.96
2018-06-17T01:50:01.300Z,86.61
2018-06-17T01:52:30.329Z,87.08
2018-06-17T01:54:58.937Z,87.86
2018-06-17T01:57:27.817Z,87.78
2018-06-17T01:59:57.617Z,87.72
2018-06-17T02:02:26.353Z,87.24
2018-06-17T02:05:00.122Z,87.55
2018-06-17T02:07:33.950Z,87.67
2018-06-17T02:10:08.110Z,87.97
2018-06-17T02:12:36.748Z,88.43
2018-06-17T02:15:05.730Z,88.28
2018-06-17T02:17:34.592Z,88.38
2018-06-17T02:20:03.207Z,88.82
2018-06-17T02:22:32.063Z,88.52
2018-06-17T02:25:00.873Z,89.06
2018-06-17T02:27:29.591Z,89.49
2018-06-17T02:29:58.379Z,89.24
2018-06-17T02:32:27.284Z,89.22
2018-06-17T02:34:55.934Z,89.00
2018-06-17T02:37:24.764Z,89.05
2018-06-17T02:39:55.005Z,89.01
2018-06-17T02:42:24.481Z,89.01
2018-06-17T02:44:58.625Z,89.11
2018-06-17T02:47:32.528Z,89.30
2018-06-17T02:50:06.604Z,89.31
2018-06-17T02:52:40.446Z,89.71
2018-06-17T02:55:09.113Z,89.74
2018-06-17T02:57:37.805Z,89.84
2018-06-17T03:00:06.774Z,90.28
2018-06-17T03:02:36.020Z,90.69
2018-06-17T03:05:05.084Z,90.72
2018-06-17T03:07:34.435Z,90.12
2018-06-17T03:10:03.200Z,90.57
2018-06-17T03:12:31.989Z,90.72
2018-06-17T03:15:01.028Z,89.91
2018-06-17T03:17:30.040Z,89.89
2018-06-17T03:19:58.608Z,90.44
2018-06-17T03:22:27.343Z,90.05
2018-06-17T03:25:01.759Z,90.28
2018-06-17T03:27:35.853Z,89.90
2018-06-17T03:31:10.174Z,90.70
2018-06-17T03:33:44.520Z,90.13
2018-06-17T03:36:13.137Z,90.44
2018-06-17T03:38:42.965Z,90.47
2018-06-17T03:41:12.484Z,90.27
2018-06-17T03:43:41.236Z,90.08
2018-06-17T03:46:09.776Z,89.78
2018-06-17T03:48:39.455Z,89.86
2018-06-17T03:51:08.343Z,90.20
2018-06-17T03:53:37.059Z,90.44
2018-06-17T03:56:05.706Z,90.80
2018-06-17T03:58:34.209Z,90.31
2018-06-17T04:01:03.160Z,90.30
2018-06-17T04:03:31.758Z,90.25
2018-06-17T04:06:00.490Z,90.12
2018-06-17T04:08:29.659Z,90.41
2018-06-17T04:10:59.200Z,90.04
2018-06-17T04:13:29.265Z,89.84
2018-06-17T04:15:58.030Z,89.52
2018-06-17T04:18:27.500Z,89.58
2018-06-17T04:20:56.503Z,89.32
2018-06-17T04:23:25.739Z,89.62
2018-06-17T04:25:54.340Z,89.35
2018-06-17T04:28:23.720Z,88.85
2018-06-17T04:30:52.868Z,89.29
2018-06-17T04:33:21.450Z,89.48
2018-06-17T04:35:50.241Z,89.74
2018-06-17T04:38:19.104Z,89.64
2018-06-17T04:40:47.684Z,89.41
2018-06-17T04:43:17.069Z,89.09
2018-06-17T04:45:46.229Z,89.07
2018-06-17T04:48:15.065Z,88.93
2018-06-17T04:50:43.721Z,88.34
2018-06-17T04:53:12.873Z,88.76
2018-06-17T04:55:42.701Z,88.01
2018-06-17T04:58:11.360Z,87.73
2018-06-17T05:00:40.060Z,87.42
2018-06-17T05:03:08.673Z,86.88
2018-06-17T05:05:37.345Z,86.70
2018-06-17T05:08:06.294Z,86.32
2018-06-17T05:10:35.880Z,86.09
2018-06-17T05:13:04.674Z,85.62
2018-06-17T05:15:34.475Z,85.66
2018-06-17T05:18:03.756Z,85.65
2018-06-17T05:20:32.414Z,85.29
2018-06-17T05:23:01.541Z,85.39
2018-06-17T05:25:30.244Z,85.53
2018-06-17T05:27:59.015Z,85.99
2018-06-17T05:30:27.857Z,86.38
2018-06-17T05:32:56.549Z,86.32
2018-06-17T05:35:25.214Z,86.30
2018-06-17T05:37:53.795Z,86.39
2018-06-17T05:40:22.521Z,85.71
2018-06-17T05:42:52.019Z,85.40
2018-06-17T05:45:21.605Z,86.03
2018-06-17T05:47:50.367Z,85.68
2018-06-17T05:50:19.057Z,85.82
2018-06-17T05:52:47.684Z,85.48
2018-06-17T05:55:16.530Z,85.72
2018-06-17T05:57:45.216Z,85.58
2018-06-17T06:00:13.931Z,85.64
2018-06-17T06:02:42.916Z,85.70
2018-06-17T06:05:12.537Z,85.58
2018-06-17T06:07:41.240Z,86.25
2018-06-17T06:10:09.959Z,86.41
2018-06-17T06:12:40.283Z,85.92
2018-06-17T06:15:09.039Z,87.08
2018-06-17T06:17:38.420Z,86.65
2018-06-17T06:20:08.884Z,85.34
2018-06-17T06:22:37.675Z,82.96
2018-06-17T06:25:07.151Z,82.87
2018-06-17T06:27:36.675Z,81.91
2018-06-17T06:30:05.876Z,81.32
2018-06-17T06:32:35.170Z,80.94
2018-06-17T06:35:04.080Z,81.61
2018-06-17T06:37:33.699Z,81.71
2018-06-17T06:40:02.461Z,82.61
2018-06-17T06:42:31.372Z,82.85
2018-06-17T06:45:00.980Z,83.76
2018-06-17T06:47:30.357Z,84.35
2018-06-17T06:49:59.031Z,84.52
2018-06-17T06:52:27.992Z,84.42
2018-06-17T06:54:57.570Z,84.11
2018-06-17T06:57:27.948Z,85.30
2018-06-17T06:59:56.697Z,85.93
2018-06-17T07:02:36.644Z,85.76
2018-06-17T07:05:16.342Z,84.31
2018-06-17T07:07:56.212Z,84.37
2018-06-17T07:10:27.170Z,84.11
2018-06-17T07:12:55.830Z,80.44
2018-06-17T07:15:37.145Z,77.96
2018-06-17T07:18:17.126Z,77.90
2018-06-17T07:20:46.053Z,76.76
2018-06-17T07:23:14.926Z,75.61
2018-06-17T07:26:54.292Z,74.46
2018-06-17T07:29:38.336Z,71.66
2018-06-17T07:32:07.101Z,68.49
2018-06-17T07:34:35.849Z,63.89
2018-06-17T07:37:04.832Z,58.43
2018-06-17T07:39:46.207Z,53.08
2018-06-17T07:42:15.128Z,52.89
2018-06-17T07:44:43.811Z,53.48
2018-06-17T07:47:12.659Z,52.34
2018-06-17T07:49:52.787Z,48.47
2018-06-17T07:52:33.676Z,44.09
2018-06-17T07:55:02.317Z,39.71
2018-06-17T07:57:32.320Z,36.37
2018-06-17T08:00:01.012Z,33.26
2018-06-17T08:02:30.653Z,31.50
2018-06-17T08:04:59.497Z,30.83
2018-06-17T08:07:28.407Z,29.16
2018-06-17T08:09:57.097Z,27.17
2018-06-17T08:12:25.948Z,26.58
2018-06-17T08:14:54.640Z,25.99
2018-06-17T08:17:23.622Z,26.10
2018-06-17T08:19:52.202Z,25.54
2018-06-17T08:22:20.945Z,24.28
2018-06-17T08:24:49.526Z,24.73
2018-06-17T08:27:18.522Z,25.38
2018-06-17T08:29:47.911Z,25.27
2018-06-17T08:32:16.758Z,25.01
2018-06-17T08:34:45.493Z,25.11
2018-06-17T08:37:14.982Z,27.34
2018-06-17T08:39:43.716Z,26.74
2018-06-17T08:42:13.656Z,25.28
2018-06-17T08:44:42.377Z,24.32
2018-06-17T08:47:11.347Z,26.09
2018-06-17T08:49:40.331Z,29.32
2018-06-17T08:52:08.887Z,32.09
2018-06-17T08:54:37.752Z,33.29
2018-06-17T08:57:06.494Z,33.11
2018-06-17T08:59:35.883Z,30.17
2018-06-17T09:02:04.903Z,25.46
2018-06-17T09:04:34.093Z,24.29
2018-06-17T09:07:02.978Z,23.07
2018-06-17T09:09:31.669Z,23.27
2018-06-17T09:12:00.265Z,26.79
2018-06-17T09:14:28.968Z,29.71
2018-06-17T09:16:57.797Z,31.89
2018-06-17T09:19:26.517Z,31.43
2018-06-17T09:21:55.613Z,30.48
2018-06-17T09:24:24.438Z,30.17
2018-06-17T09:26:53.287Z,27.73
2018-06-17T09:29:23.041Z,27.58
2018-06-17T09:31:51.920Z,29.87
2018-06-17T09:34:20.776Z,30.29
2018-06-17T09:36:49.460Z,27.45
2018-06-17T09:39:18.541Z,26.52
2018-06-17T09:41:47.410Z,28.40
2018-06-17T09:44:16.267Z,25.63
2018-06-17T09:46:45.043Z,25.08
2018-06-17T09:49:14.138Z,24.89
2018-06-17T09:51:42.967Z,24.02
2018-06-17T09:54:11.833Z,25.94
2018-06-17T09:56:41.018Z,26.14
2018-06-17T09:59:10.024Z,27.72
2018-06-17T10:01:38.764Z,27.36
2018-06-17T10:04:07.393Z,28.25
2018-06-17T10:06:36.275Z,29.54
2018-06-17T10:09:09.097Z,30.21
2018-06-17T10:11:37.776Z,26.99
2018-06-17T10:14:06.733Z,23.59
2018-06-17T10:16:36.058Z,22.44
2018-06-17T10:19:04.962Z,19.05
2018-06-17T10:21:33.987Z,18.82
2018-06-17T10:24:03.399Z,17.43
2018-06-17T10:26:32.094Z,16.16
2018-06-17T10:29:00.976Z,16.31
2018-06-17T10:31:30.079Z,16.88
2018-06-17T10:33:58.857Z,18.83
2018-06-17T10:36:28.292Z,19.50
2018-06-17T10:38:57.703Z,19.85
2018-06-17T10:41:26.418Z,21.77
2018-06-17T10:43:56.119Z,22.36
2018-06-17T10:46:25.098Z,21.40
2018-06-17T10:48:54.253Z,21.73
2018-06-17T10:51:23.257Z,24.43
2018-06-17T10:53:51.948Z,24.78
2018-06-17T10:56:20.823Z,25.36
2018-06-17T10:58:50.172Z,26.11
2018-06-17T11:01:19.164Z,26.96
2018-06-17T11:03:47.928Z,27.49
2018-06-17T11:06:17.013Z,26.86
2018-06-17T11:08:45.694Z,27.44
2018-06-17T11:11:14.353Z,28.70
2018-06-17T11:13:43.125Z,30.80
2018-06-17T11:16:12.015Z,32.48
2018-06-17T11:18:40.749Z,32.76
2018-06-17T11:21:09.473Z,34.30
2018-06-17T11:23:38.114Z,35.01
2018-06-17T11:26:06.925Z,34.61
2018-06-17T11:28:35.676Z,35.26
2018-06-17T11:31:04.682Z,35.58
2018-06-17T11:33:33.790Z,35.55
2018-06-17T11:36:02.790Z,34.47
2018-06-17T11:38:31.756Z,35.38
2018-06-17T11:41:00.534Z,34.04
2018-06-17T11:43:29.951Z,34.08
2018-06-17T11:45:58.734Z,32.40
2018-06-17T11:48:27.627Z,33.15
2018-06-17T11:50:56.496Z,32.97
2018-06-17T11:53:25.489Z,32.32
2018-06-17T11:55:54.202Z,33.60
2018-06-17T11:58:23.071Z,33.40
2018-06-17T12:00:52.129Z,33.39
2018-06-17T12:03:20.903Z,33.69
2018-06-17T12:05:49.812Z,34.60
2018-06-17T12:08:18.952Z,35.31
2018-06-17T12:10:48.485Z,37.34
2018-06-17T12:13:17.382Z,38.78
2018-06-17T12:15:47.728Z,39.92
2018-06-17T12:18:16.709Z,39.20
2018-06-17T12:20:46.050Z,39.22
2018-06-17T12:23:14.919Z,41.21
2018-06-17T12:25:43.901Z,40.76
2018-06-17T12:28:12.767Z,40.44
2018-06-17T12:30:41.994Z,41.76
2018-06-17T12:33:10.592Z,40.71
2018-06-17T12:35:39.179Z,39.55
2018-06-17T12:38:08.728Z,38.91
2018-06-17T12:40:37.369Z,38.42
2018-06-17T12:43:06.215Z,39.21
2018-06-17T12:45:35.279Z,39.96
2018-06-17T12:48:04.618Z,39.80
2018-06-17T12:50:33.801Z,39.89
2018-06-17T12:53:02.523Z,41.03
2018-06-17T12:55:31.718Z,40.93
2018-06-17T12:58:00.399Z,40.14
2018-06-17T13:00:29.234Z,40.26
2018-06-17T13:02:57.858Z,40.64
2018-06-17T13:05:27.350Z,40.95
2018-06-17T13:07:56.231Z,40.47
2018-06-17T13:10:26.554Z,39.84
2018-06-17T13:12:55.715Z,39.34
2018-06-17T13:15:24.735Z,38.35
2018-06-17T13:17:54.423Z,37.63
2018-06-17T13:20:23.634Z,37.04
2018-06-17T13:22:52.458Z,37.04
2018-06-17T13:25:21.274Z,37.98
2018-06-17T13:27:50.311Z,38.89
2018-06-17T13:30:19.287Z,39.03
2018-06-17T13:32:48.170Z,37.70
2018-06-17T13:35:16.773Z,39.09
2018-06-17T13:37:46.084Z,41.09
2018-06-17T13:40:15.279Z,40.82
2018-06-17T13:42:44.280Z,41.64
2018-06-17T13:45:13.068Z,42.29
2018-06-17T13:47:41.729Z,42.43
2018-06-17T13:50:11.228Z,43.21
2018-06-17T13:52:40.189Z,42.48
2018-06-17T13:55:08.975Z,42.74
2018-06-17T13:57:37.857Z,42.90
2018-06-17T14:00:07.682Z,43.09
2018-06-17T14:02:36.848Z,43.94
2018-06-17T14:05:06.668Z,44.08
2018-06-17T14:07:35.505Z,43.00
2018-06-17T14:10:05.752Z,42.99
2018-06-17T14:12:35.035Z,41.69
2018-06-17T14:15:04.344Z,41.74
2018-06-17T14:17:33.594Z,41.02
2018-06-17T14:20:02.505Z,40.51
2018-06-17T14:22:31.176Z,40.06
2018-06-17T14:25:00.204Z,39.79
2018-06-17T14:27:28.868Z,41.56
2018-06-17T14:29:57.570Z,41.57
2018-06-17T14:32:26.803Z,41.42
2018-06-17T14:34:55.780Z,42.75
2018-06-17T14:37:24.520Z,42.24
2018-06-17T14:39:53.160Z,42.03
2018-06-17T14:42:27.124Z,40.90
2018-06-17T14:45:00.966Z,41.11
2018-06-17T14:47:34.944Z,40.84
2018-06-17T14:50:09.005Z,43.35
2018-06-17T14:52:43.289Z,43.82
2018-06-17T14:55:12.059Z,45.00
2018-06-17T14:57:40.870Z,44.88
2018-06-17T15:00:09.833Z,46.73
2018-06-17T15:02:38.444Z,46.04
2018-06-17T15:05:07.179Z,46.92
2018-06-17T15:07:36.486Z,45.25
2018-06-17T15:10:05.240Z,45.36
2018-06-17T15:12:33.978Z,45.16
2018-06-17T15:15:02.606Z,45.83
2018-06-17T15:17:31.219Z,45.58
2018-06-17T15:20:00.324Z,46.00
2018-06-17T15:22:28.928Z,46.09
2018-06-17T15:24:57.663Z,45.62
2018-06-17T15:27:26.343Z,45.46
2018-06-17T15:29:55.584Z,45.04
2018-06-17T15:32:29.373Z,45.37
2018-06-17T15:35:03.390Z,45.67
2018-06-17T15:37:38.033Z,46.80
2018-06-17T15:40:06.685Z,46.51
2018-06-17T15:42:35.350Z,45.23
2018-06-17T15:45:04.180Z,45.46
2018-06-17T15:47:33.645Z,45.45
2018-06-17T15:50:02.603Z,46.12
2018-06-17T15:52:31.184Z,46.98
2018-06-17T15:55:00.460Z,46.03
2018-06-17T15:57:29.359Z,45.99
2018-06-17T15:59:58.064Z,46.08
2018-06-17T16:02:27.120Z,47.13
2018-06-17T16:04:56.184Z,48.01
2018-06-17T16:07:24.779Z,48.52
2018-06-17T16:09:53.734Z,48.68
2018-06-17T16:12:27.865Z,48.64
2018-06-17T16:15:01.749Z,48.10
2018-06-17T16:18:34.650Z,47.65
2018-06-17T16:21:06.229Z,47.62
2018-06-17T16:23:35.333Z,46.54
2018-06-17T16:26:04.435Z,46.81
2018-06-17T16:28:33.406Z,46.95
2018-06-17T16:31:02.219Z,46.10
2018-06-17T16:33:30.853Z,46.91
2018-06-17T16:35:59.654Z,46.73
2018-06-17T16:38:28.219Z,46.21
2018-06-17T16:40:56.903Z,46.09
2018-06-17T16:43:25.577Z,46.54
2018-06-17T16:45:54.331Z,47.20
2018-06-17T16:48:22.940Z,47.00
2018-06-17T16:50:57.065Z,47.44
2018-06-17T16:53:32.864Z,48.43
2018-06-17T16:56:07.679Z,48.10
2018-06-17T16:58:41.670Z,49.26
2018-06-17T17:01:10.890Z,49.47
2018-06-17T17:03:40.266Z,49.54
2018-06-17T17:06:09.965Z,49.55
2018-06-17T17:08:38.646Z,48.43
2018-06-17T17:11:07.424Z,46.87
2018-06-17T17:13:36.064Z,46.87
2018-06-17T17:16:05.260Z,45.67
2018-06-17T17:18:34.142Z,44.69
2018-06-17T17:21:02.913Z,44.65
2018-06-17T17:23:31.720Z,44.14
2018-06-17T17:26:00.409Z,44.18
2018-06-17T17:28:29.371Z,44.50
2018-06-17T17:30:58.690Z,44.86
2018-06-17T17:33:32.690Z,44.65
2018-06-17T17:36:06.915Z,44.76
2018-06-17T17:38:41.143Z,45.24
2018-06-17T17:41:10.121Z,44.59
2018-06-17T17:43:38.674Z,44.84
2018-06-17T17:46:12.648Z,44.51
2018-06-17T17:48:41.505Z,43.29
2018-06-17T17:51:10.326Z,43.27
2018-06-17T17:53:39.213Z,43.96
2018-06-17T17:56:08.006Z,45.00
2018-06-17T17:58:36.884Z,45.93
2018-06-17T18:01:05.989Z,46.43
2018-06-17T18:03:34.933Z,47.10
2018-06-17T18:06:03.660Z,47.29
2018-06-17T18:08:32.345Z,48.02
2018-06-17T18:11:01.062Z,48.88
2018-06-17T18:13:29.822Z,49.04
2018-06-17T18:15:58.542Z,50.02
2018-06-17T18:18:27.540Z,49.66
2018-06-17T18:20:56.287Z,49.84
2018-06-17T18:23:25.175Z,51.18
2018-06-17T18:25:59.166Z,50.76
2018-06-17T18:28:33.126Z,51.48
2018-06-17T18:31:03.635Z,52.24
2018-06-17T18:33:37.624Z,53.65
2018-06-17T18:36:12.460Z,53.65
2018-06-17T18:38:42.452Z,53.82
2018-06-17T18:41:13.031Z,53.83
2018-06-17T18:43:42.135Z,54.35
2018-06-17T18:46:12.341Z,53.81
2018-06-17T18:48:41.770Z,52.82
2018-06-17T18:51:10.486Z,53.76
2018-06-17T18:53:39.786Z,53.14
2018-06-17T18:56:09.319Z,53.45
2018-06-17T18:58:38.301Z,53.80
2018-06-17T19:01:08.420Z,53.56
2018-06-17T19:03:37.950Z,54.19
2018-06-17T19:06:07.010Z,54.92
2018-06-17T19:08:40.822Z,54.89
2018-06-17T19:11:14.961Z,55.46
2018-06-17T19:13:49.636Z,55.49
2018-06-17T19:17:21.525Z,55.94
2018-06-17T19:19:50.579Z,56.17
2018-06-17T19:22:19.782Z,56.72
2018-06-17T19:24:48.950Z,56.14
2018-06-17T19:27:18.106Z,56.76
2018-06-17T19:29:47.198Z,56.32
2018-06-17T19:32:16.026Z,56.54
2018-06-17T19:34:45.685Z,56.83
2018-06-17T19:37:14.377Z,57.42
2018-06-17T19:39:43.255Z,57.13
2018-06-17T19:42:11.971Z,58.10
2018-06-17T19:44:40.788Z,57.81
2018-06-17T19:47:10.109Z,58.53
2018-06-17T19:49:44.265Z,57.96
2018-06-17T19:52:18.445Z,57.99
2018-06-17T19:54:52.585Z,58.46
2018-06-17T19:57:26.577Z,58.43
2018-06-17T20:00:00.410Z,58.71
2018-06-17T20:02:29.765Z,58.67
2018-06-17T20:04:58.856Z,58.92
2018-06-17T20:07:28.026Z,58.43
2018-06-17T20:09:57.226Z,58.44
2018-06-17T20:12:26.134Z,57.76
2018-06-17T20:14:55.163Z,58.43
2018-06-17T20:17:24.245Z,58.57
2018-06-17T20:19:53.211Z,58.38
2018-06-17T20:22:22.378Z,58.87
2018-06-17T20:24:51.196Z,59.39
2018-06-17T20:27:19.843Z,60.14
2018-06-17T20:29:48.898Z,59.87
2018-06-17T20:32:22.997Z,60.26
2018-06-17T20:34:57.257Z,60.35
2018-06-17T20:37:31.175Z,60.65
2018-06-17T20:40:06.297Z,60.06
2018-06-17T20:42:40.516Z,60.06
2018-06-17T20:45:09.985Z,59.48
2018-06-17T20:47:38.910Z,59.71
2018-06-17T20:50:08.167Z,59.85
2018-06-17T20:52:37.345Z,59.81
2018-06-17T20:55:06.458Z,60.00
2018-06-17T20:57:35.130Z,60.29
2018-06-17T21:00:11.886Z,60.38
2018-06-17T21:02:41.077Z,60.84
2018-06-17T21:05:10.196Z,61.27
2018-06-17T21:07:39.601Z,61.98
2018-06-17T21:10:08.620Z,61.92
2018-06-17T21:12:37.396Z,60.94
2018-06-17T21:15:11.271Z,62.69
2018-06-17T21:17:40.202Z,63.54
2018-06-17T21:20:14.182Z,62.56
2018-06-17T21:22:48.142Z,62.94
2018-06-17T21:25:22.137Z,63.79
2018-06-17T21:27:52.070Z,62.80
2018-06-17T21:30:21.342Z,65.57
2018-06-17T21:32:50.206Z,64.92
2018-06-17T21:35:19.130Z,64.70
2018-06-17T21:37:47.873Z,65.90
2018-06-17T21:40:16.795Z,65.68
2018-06-17T21:42:45.400Z,66.02
2018-06-17T21:45:14.517Z,66.47
2018-06-17T21:47:44.184Z,66.70
2018-06-17T21:50:13.306Z,66.96
2018-06-17T21:52:42.068Z,66.14
2018-06-17T21:55:10.896Z,66.16
2018-06-17T21:57:39.473Z,65.90
2018-06-17T22:00:09.709Z,65.18
2018-06-17T22:02:45.181Z,64.80
2018-06-17T22:05:14.307Z,64.56
2018-06-17T22:07:48.329Z,65.01
2018-06-17T22:10:22.235Z,65.64
2018-06-17T22:12:56.247Z,64.93
2018-06-17T22:15:30.271Z,65.23
2018-06-17T22:17:59.577Z,65.38
2018-06-17T22:20:28.136Z,66.17
2018-06-17T22:22:57.151Z,67.00
2018-06-17T22:25:25.847Z,67.31
2018-06-17T22:27:54.598Z,67.75
2018-06-17T22:30:23.371Z,68.35
2018-06-17T22:32:52.136Z,68.34
2018-06-17T22:35:21.480Z,68.07
2018-06-17T22:37:50.401Z,69.17
2018-06-17T22:40:19.051Z,69.26
2018-06-17T22:42:47.881Z,69.08
2018-06-17T22:45:17.157Z,68.55
2018-06-17T22:47:51.350Z,68.48
2018-06-17T22:50:20.370Z,68.47
2018-06-17T22:53:00.323Z,69.47
2018-06-17T22:55:29.247Z,69.21
2018-06-17T22:58:03.747Z,70.09
2018-06-17T23:00:37.725Z,71.13
2018-06-17T23:03:12.123Z,71.94
2018-06-17T23:05:45.927Z,73.01
2018-06-17T23:08:19.681Z,72.91
2018-06-17T23:10:48.327Z,72.61
2018-06-17T23:13:17.005Z,72.65
2018-06-17T23:15:45.827Z,72.78
2018-06-17T23:18:15.071Z,73.86
2018-06-17T23:20:43.920Z,74.26
2018-06-17T23:23:12.567Z,74.68
2018-06-17T23:25:41.511Z,75.46
2018-06-17T23:28:10.147Z,75.17
2018-06-17T23:30:38.914Z,75.27
2018-06-17T23:33:08.116Z,74.92
2018-06-17T23:35:36.737Z,74.45
2018-06-17T23:38:05.828Z,75.05
2018-06-17T23:40:35.225Z,75.92
2018-06-17T23:43:04.080Z,76.31
2018-06-17T23:45:32.691Z,75.96
2018-06-17T23:48:06.456Z,75.99
2018-06-17T23:50:40.392Z,75.75
2018-06-17T23:53:14.423Z,75.00
2018-06-17T23:55:48.293Z,74.69
2018-06-17T23:58:17.191Z,75.37
